createdAt,value
2023-12-10T00:02:27.944Z,8.30
2023-12-10T00:04:56.675Z,8.30
2023-12-10T00:07:27.848Z,8.30
2023-12-10T00:09:57.608Z,8.30
2023-12-10T00:12:26.126Z,8.30
2023-12-10T00:14:55.892Z,8.40
2023-12-10T00:17:25.174Z,8.30
2023-12-10T00:19:53.855Z,8.40
2023-12-10T00:22:22.300Z,8.30
2023-12-10T00:24:50.664Z,8.30
2023-12-10T00:27:20.410Z,8.20
2023-12-10T00:29:51.231Z,8.00
2023-12-10T00:32:19.549Z,7.90
2023-12-10T00:34:48.309Z,8.10
2023-12-10T00:37:16.853Z,8.20
2023-12-10T00:39:45.193Z,8.40
2023-12-10T00:42:13.524Z,8.40
2023-12-10T00:44:45.030Z,8.30
2023-12-10T00:47:13.338Z,8.20
2023-12-10T00:49:41.725Z,8.20
2023-12-10T00:52:10.094Z,8.10
2023-12-10T00:54:38.393Z,8.00
2023-12-10T00:57:07.182Z,8.00
2023-12-10T00:59:35.511Z,7.90
2023-12-10T01:02:05.347Z,7.90
2023-12-10T01:04:33.864Z,8.00
2023-12-10T01:07:02.231Z,8.20
2023-12-10T01:09:30.950Z,8.10
2023-12-10T01:11:59.255Z,8.00
2023-12-10T01:14:27.664Z,8.00
2023-12-10T01:16:55.943Z,8.10
2023-12-10T01:19:25.783Z,8.10
2023-12-10T01:21:54.461Z,8.00
2023-12-10T01:24:22.990Z,7.90
2023-12-10T01:26:52.699Z,7.80
2023-12-10T01:29:21.518Z,7.70
2023-12-10T01:31:49.844Z,7.60
2023-12-10T01:34:18.471Z,7.60
2023-12-10T01:36:48.468Z,7.60
2023-12-10T01:39:17.044Z,7.50
2023-12-10T01:41:45.473Z,7.50
2023-12-10T01:44:14.035Z,7.50
2023-12-10T01:46:42.324Z,7.50
2023-12-10T01:49:12.608Z,7.40
2023-12-10T01:51:41.559Z,7.40
2023-12-10T01:54:22.727Z,7.30
2023-12-10T01:57:00.085Z,7.30
2023-12-10T01:59:36.119Z,7.30
2023-12-10T02:02:05.109Z,7.30
2023-12-10T02:04:33.730Z,7.20
2023-12-10T02:07:02.222Z,7.30
2023-12-10T02:09:31.991Z,7.20
2023-12-10T02:12:00.368Z,7.20
2023-12-10T02:14:28.689Z,7.20
2023-12-10T02:16:57.105Z,7.20
2023-12-10T02:19:25.604Z,7.20
2023-12-10T02:21:54.765Z,7.30
2023-12-10T02:24:28.804Z,7.20
2023-12-10T02:26:58.630Z,7.20
2023-12-10T02:29:27.037Z,7.30
2023-12-10T02:31:55.988Z,7.30
2023-12-10T02:34:24.976Z,7.30
2023-12-10T02:36:53.411Z,7.30
2023-12-10T02:39:21.903Z,7.30
2023-12-10T02:41:50.276Z,7.30
2023-12-10T02:44:19.985Z,7.30
2023-12-10T02:46:50.605Z,7.30
2023-12-10T02:49:19.415Z,7.40
2023-12-10T02:51:47.885Z,7.30
2023-12-10T02:54:16.247Z,7.30
2023-12-10T02:56:44.815Z,7.20
2023-12-10T02:59:13.150Z,7.30
2023-12-10T03:01:43.002Z,7.20
2023-12-10T03:04:11.383Z,7.10
2023-12-10T03:06:39.757Z,7.00
2023-12-10T03:09:09.164Z,7.00
2023-12-10T03:11:37.473Z,6.90
2023-12-10T03:14:05.921Z,6.90
2023-12-10T03:16:34.254Z,7.00
2023-12-10T03:19:04.003Z,7.00
2023-12-10T03:21:32.400Z,6.90
2023-12-10T03:24:00.888Z,6.90
2023-12-10T03:26:29.360Z,6.90
2023-12-10T03:28:57.690Z,6.90
2023-12-10T03:31:26.053Z,6.90
2023-12-10T03:33:54.422Z,7.10
2023-12-10T03:36:24.903Z,7.00
2023-12-10T03:38:53.518Z,7.10
2023-12-10T03:41:21.822Z,7.30
2023-12-10T03:43:50.186Z,7.20
2023-12-10T03:46:18.487Z,7.00
2023-12-10T03:48:46.891Z,7.00
2023-12-10T03:51:15.325Z,7.00
2023-12-10T03:53:45.307Z,7.00
2023-12-10T03:56:13.576Z,7.00
2023-12-10T03:58:41.902Z,7.00
2023-12-10T04:01:10.380Z,6.90
2023-12-10T04:03:39.012Z,6.90
2023-12-10T04:06:08.223Z,7.10
2023-12-10T04:08:36.522Z,7.10
2023-12-10T04:11:07.673Z,7.10
2023-12-10T04:13:36.084Z,7.10
2023-12-10T04:16:04.766Z,7.10
2023-12-10T04:18:33.191Z,7.10
2023-12-10T04:21:01.537Z,7.20
2023-12-10T04:23:30.968Z,7.20
2023-12-10T04:25:59.299Z,7.30
2023-12-10T04:28:28.987Z,7.30
2023-12-10T04:30:57.391Z,7.30
2023-12-10T04:33:25.839Z,7.20
2023-12-10T04:35:54.351Z,7.20
2023-12-10T04:38:22.686Z,7.10
2023-12-10T04:40:51.158Z,7.20
2023-12-10T04:43:20.991Z,7.20
2023-12-10T04:45:51.295Z,7.20
2023-12-10T04:48:20.795Z,7.20
2023-12-10T04:50:49.226Z,7.20
2023-12-10T04:53:17.575Z,7.20
2023-12-10T04:55:45.926Z,7.20
2023-12-10T04:58:16.316Z,7.10
2023-12-10T05:00:47.021Z,7.10
2023-12-10T05:03:16.904Z,7.00
2023-12-10T05:05:45.420Z,7.00
2023-12-10T05:08:13.884Z,7.00
2023-12-10T05:10:48.407Z,7.00
2023-12-10T05:13:16.746Z,7.00
2023-12-10T05:15:45.301Z,7.00
2023-12-10T05:18:16.369Z,6.90
2023-12-10T05:20:44.810Z,6.80
2023-12-10T05:23:14.200Z,6.70
2023-12-10T05:25:43.210Z,6.70
2023-12-10T05:28:11.556Z,6.70
2023-12-10T05:30:41.979Z,6.70
2023-12-10T05:33:10.539Z,6.70
2023-12-10T05:35:40.518Z,6.70
2023-12-10T05:38:10.340Z,6.70
2023-12-10T05:40:39.028Z,6.80
2023-12-10T05:43:09.527Z,6.80
2023-12-10T05:45:39.961Z,6.80
2023-12-10T05:48:10.605Z,6.90
2023-12-10T05:50:40.371Z,6.80
2023-12-10T05:53:08.666Z,6.70
2023-12-10T05:55:37.983Z,6.70
2023-12-10T05:58:06.602Z,6.70
2023-12-10T06:00:35.008Z,6.60
2023-12-10T06:03:04.147Z,6.60
2023-12-10T06:05:32.653Z,6.50
2023-12-10T06:08:02.430Z,6.50
2023-12-10T06:10:30.854Z,6.50
2023-12-10T06:12:59.322Z,6.50
2023-12-10T06:15:27.786Z,6.40
2023-12-10T06:17:56.229Z,6.40
2023-12-10T06:20:24.564Z,6.70
2023-12-10T06:22:58.796Z,7.00
2023-12-10T06:25:28.664Z,7.10
2023-12-10T06:27:57.943Z,7.10
2023-12-10T06:30:26.910Z,7.00
2023-12-10T06:32:56.863Z,6.80
2023-12-10T06:35:25.756Z,6.70
2023-12-10T06:37:54.123Z,6.70
2023-12-10T06:40:22.583Z,6.60
2023-12-10T06:42:52.336Z,6.60
2023-12-10T06:45:21.383Z,6.50
2023-12-10T06:47:49.839Z,6.30
2023-12-10T06:50:18.946Z,6.30
2023-12-10T06:52:47.398Z,6.30
2023-12-10T06:55:15.908Z,6.30
2023-12-10T06:57:44.312Z,6.20
2023-12-10T07:00:18.597Z,6.20
2023-12-10T07:02:47.985Z,6.60
2023-12-10T07:05:16.415Z,6.90
2023-12-10T07:07:44.829Z,7.00
2023-12-10T07:10:13.238Z,7.10
2023-12-10T07:12:41.605Z,7.20
2023-12-10T07:15:10.952Z,7.20
2023-12-10T07:17:40.853Z,7.20
2023-12-10T07:20:12.897Z,7.20
2023-12-10T07:22:42.385Z,7.20
2023-12-10T07:25:11.052Z,7.20
2023-12-10T07:27:39.465Z,7.20
2023-12-10T07:30:09.336Z,7.10
2023-12-10T07:32:37.742Z,7.10
2023-12-10T07:35:07.916Z,7.20
2023-12-10T07:37:36.333Z,7.20
2023-12-10T07:40:07.948Z,7.30
2023-12-10T07:42:37.313Z,7.30
2023-12-10T07:45:06.637Z,7.50
2023-12-10T07:47:36.040Z,7.50
2023-12-10T07:50:08.510Z,7.50
2023-12-10T07:52:36.889Z,7.50
2023-12-10T07:55:07.645Z,7.60
2023-12-10T07:57:36.204Z,7.80
2023-12-10T08:00:06.646Z,7.80
2023-12-10T08:02:35.482Z,7.90
2023-12-10T08:05:04.366Z,7.90
2023-12-10T08:07:35.371Z,7.90
2023-12-10T08:10:08.031Z,8.00
2023-12-10T08:12:36.799Z,8.40
2023-12-10T08:15:07.497Z,8.10
2023-12-10T08:17:35.811Z,8.00
2023-12-10T08:20:05.952Z,8.00
2023-12-10T08:22:35.638Z,8.00
2023-12-10T08:25:04.528Z,8.10
2023-12-10T08:27:33.218Z,8.10
2023-12-10T08:30:01.656Z,8.20
2023-12-10T08:32:33.382Z,8.30
2023-12-10T08:35:02.572Z,8.30
2023-12-10T08:37:30.970Z,8.20
2023-12-10T08:40:03.228Z,8.20
2023-12-10T08:42:32.682Z,8.20
2023-12-10T08:45:01.333Z,8.20
2023-12-10T08:47:29.832Z,8.20
2023-12-10T08:49:58.245Z,8.10
2023-12-10T08:52:26.664Z,8.30
2023-12-10T08:54:55.059Z,8.40
2023-12-10T08:57:25.947Z,8.40
2023-12-10T08:59:56.619Z,8.60
2023-12-10T09:02:24.952Z,8.70
2023-12-10T09:04:53.389Z,9.00
2023-12-10T09:07:23.150Z,9.20
2023-12-10T09:09:59.241Z,9.10
2023-12-10T09:12:35.931Z,9.30
2023-12-10T09:15:05.044Z,9.10
2023-12-10T09:17:34.075Z,8.90
2023-12-10T09:20:03.196Z,8.90
2023-12-10T09:22:32.404Z,9.00
2023-12-10T09:25:02.235Z,9.20
2023-12-10T09:27:31.556Z,9.20
2023-12-10T09:30:01.851Z,9.00
2023-12-10T09:32:30.785Z,9.10
2023-12-10T09:35:01.877Z,9.30
2023-12-10T09:37:30.782Z,9.10
2023-12-10T09:39:59.194Z,9.00
2023-12-10T09:42:28.048Z,9.10
2023-12-10T09:44:56.519Z,9.20
2023-12-10T09:47:27.997Z,9.20
2023-12-10T09:49:58.958Z,9.00
2023-12-10T09:52:27.546Z,9.00
2023-12-10T09:54:56.135Z,9.00
2023-12-10T09:57:24.556Z,9.20
2023-12-10T09:59:52.904Z,9.10
2023-12-10T10:02:21.254Z,9.20
2023-12-10T10:04:52.070Z,9.30
2023-12-10T10:07:21.140Z,9.50
2023-12-10T10:09:49.476Z,9.60
2023-12-10T10:12:17.821Z,9.70
2023-12-10T10:14:57.014Z,9.90
2023-12-10T10:17:29.350Z,10.00
2023-12-10T10:19:59.874Z,9.80
2023-12-10T10:22:29.671Z,10.10
2023-12-10T10:24:58.101Z,10.00
2023-12-10T10:27:26.942Z,10.00
2023-12-10T10:29:56.392Z,9.80
2023-12-10T10:32:25.514Z,9.70
2023-12-10T10:34:53.996Z,9.70
2023-12-10T10:37:23.735Z,9.70
2023-12-10T10:39:52.238Z,9.40
2023-12-10T10:42:20.698Z,9.30
2023-12-10T10:44:49.184Z,9.10
2023-12-10T10:47:19.446Z,9.10
2023-12-10T10:50:19.599Z,9.00
2023-12-10T10:52:45.034Z,9.00
2023-12-10T10:55:14.785Z,8.70
2023-12-10T10:57:43.417Z,8.70
2023-12-10T11:00:37.138Z,8.50
2023-12-10T11:03:06.376Z,8.40
2023-12-10T11:05:36.122Z,8.40
2023-12-10T11:08:07.152Z,8.40
2023-12-10T11:10:36.204Z,8.40
2023-12-10T11:13:04.760Z,8.40
2023-12-10T11:15:33.377Z,8.40
2023-12-10T11:18:03.843Z,8.40
2023-12-10T11:20:35.295Z,8.40
2023-12-10T11:23:06.700Z,8.40
2023-12-10T11:25:35.617Z,8.40
2023-12-10T11:28:11.949Z,8.50
2023-12-10T11:30:41.317Z,8.50
2023-12-10T11:33:11.057Z,8.50
2023-12-10T11:35:40.267Z,8.50
2023-12-10T11:38:10.537Z,8.60
2023-12-10T11:40:39.879Z,8.70
2023-12-10T11:43:09.982Z,8.70
2023-12-10T11:45:39.057Z,8.80
2023-12-10T11:48:08.140Z,8.80
2023-12-10T11:50:37.891Z,8.90
2023-12-10T11:53:09.499Z,8.80
2023-12-10T11:55:37.882Z,8.90
2023-12-10T11:58:06.455Z,8.80
2023-12-10T12:00:35.015Z,8.80
2023-12-10T12:03:07.046Z,8.80
2023-12-10T12:05:35.605Z,8.80
2023-12-10T12:08:05.617Z,8.80
2023-12-10T12:10:43.252Z,8.80
2023-12-10T12:13:21.741Z,8.80
2023-12-10T12:15:58.161Z,8.90
2023-12-10T12:18:29.108Z,8.90
2023-12-10T12:20:57.570Z,9.00
2023-12-10T12:23:25.950Z,9.00
2023-12-10T12:25:55.672Z,9.00
2023-12-10T12:28:23.963Z,9.00
2023-12-10T12:30:56.549Z,9.00
2023-12-10T12:33:25.104Z,9.10
2023-12-10T12:36:00.453Z,9.10
2023-12-10T12:38:29.397Z,9.10
2023-12-10T12:40:59.149Z,9.20
2023-12-10T12:43:27.504Z,9.20
2023-12-10T12:46:04.189Z,9.20
2023-12-10T12:48:37.579Z,9.20
2023-12-10T12:51:21.322Z,9.10
2023-12-10T12:54:11.280Z,9.20
2023-12-10T12:56:42.062Z,9.10
2023-12-10T12:59:10.624Z,9.20
2023-12-10T13:01:44.331Z,9.20
2023-12-10T13:04:17.734Z,9.30
2023-12-10T13:06:46.477Z,9.40
2023-12-10T13:09:15.078Z,9.50
2023-12-10T13:11:44.797Z,9.50
2023-12-10T13:14:13.866Z,9.50
2023-12-10T13:16:43.744Z,9.50
2023-12-10T13:19:12.223Z,9.50
2023-12-10T13:21:44.728Z,9.50
2023-12-10T13:24:13.121Z,9.50
2023-12-10T13:26:41.447Z,9.50
2023-12-10T13:29:11.535Z,9.50
2023-12-10T13:31:40.380Z,9.50
2023-12-10T13:34:08.900Z,9.50
2023-12-10T13:36:37.751Z,9.50
2023-12-10T13:39:06.519Z,9.50
2023-12-10T13:41:34.792Z,9.50
2023-12-10T13:44:03.657Z,9.50
2023-12-10T13:46:35.476Z,9.50
2023-12-10T13:49:05.691Z,9.50
2023-12-10T13:51:34.156Z,9.50
2023-12-10T13:54:03.441Z,9.50
2023-12-10T13:56:31.737Z,9.50
2023-12-10T13:59:00.073Z,9.70
2023-12-10T14:01:28.533Z,9.60
2023-12-10T14:03:58.409Z,9.70
2023-12-10T14:06:26.731Z,9.60
2023-12-10T14:08:55.267Z,9.70
2023-12-10T14:11:28.884Z,9.70
2023-12-10T14:14:03.342Z,9.60
2023-12-10T14:16:31.660Z,9.60
2023-12-10T14:19:01.479Z,9.60
2023-12-10T14:21:32.544Z,9.60
2023-12-10T14:24:01.554Z,9.60
2023-12-10T14:26:29.925Z,9.60
2023-12-10T14:28:59.434Z,9.60
2023-12-10T14:31:28.250Z,9.60
2023-12-10T14:33:56.819Z,9.60
2023-12-10T14:36:26.998Z,9.50
2023-12-10T14:38:56.212Z,9.50
2023-12-10T14:41:24.540Z,9.50
2023-12-10T14:43:53.008Z,9.50
2023-12-10T14:46:21.453Z,9.50
2023-12-10T14:48:50.747Z,9.40
2023-12-10T14:51:19.353Z,9.40
2023-12-10T14:53:49.101Z,9.50
2023-12-10T14:56:17.475Z,9.40
2023-12-10T14:58:45.885Z,9.40
2023-12-10T15:01:14.341Z,9.40
2023-12-10T15:03:42.781Z,9.30
2023-12-10T15:06:11.266Z,9.20
2023-12-10T15:08:40.201Z,9.30
2023-12-10T15:11:09.916Z,9.20
2023-12-10T15:13:38.293Z,9.20
2023-12-10T15:16:08.161Z,9.10
2023-12-10T15:18:36.732Z,9.10
2023-12-10T15:21:05.878Z,9.10
2023-12-10T15:23:34.291Z,9.20
2023-12-10T15:26:03.308Z,9.20
2023-12-10T15:28:33.794Z,9.10
2023-12-10T15:31:02.307Z,9.20
2023-12-10T15:33:30.734Z,9.10
2023-12-10T15:35:59.115Z,9.20
2023-12-10T15:38:27.449Z,9.20
2023-12-10T15:40:55.958Z,9.30
2023-12-10T15:43:24.290Z,9.30
2023-12-10T15:45:54.334Z,9.20
2023-12-10T15:48:31.147Z,9.10
2023-12-10T15:51:00.030Z,9.00
2023-12-10T15:53:28.343Z,9.00
2023-12-10T15:55:56.669Z,8.90
2023-12-10T15:58:25.074Z,8.80
2023-12-10T16:00:55.069Z,8.80
2023-12-10T16:03:24.741Z,8.60
2023-12-10T16:05:53.390Z,8.50
2023-12-10T16:08:21.801Z,8.40
2023-12-10T16:10:50.450Z,8.20
2023-12-10T16:13:21.821Z,8.10
2023-12-10T16:15:54.098Z,8.00
2023-12-10T16:18:22.659Z,7.80
2023-12-10T16:20:50.991Z,7.70
2023-12-10T16:23:19.330Z,7.60
2023-12-10T16:25:47.863Z,7.50
2023-12-10T16:28:16.315Z,7.30
2023-12-10T16:30:44.804Z,7.20
2023-12-10T16:33:14.588Z,7.00
2023-12-10T16:35:43.340Z,6.90
2023-12-10T16:38:11.647Z,6.90
2023-12-10T16:40:40.254Z,6.80
2023-12-10T16:43:08.699Z,6.70
2023-12-10T16:45:39.979Z,6.70
2023-12-10T16:48:08.624Z,6.60
2023-12-10T16:50:38.352Z,6.60
2023-12-10T16:53:06.671Z,6.60
2023-12-10T16:55:35.374Z,6.40
2023-12-10T16:58:03.744Z,6.30
2023-12-10T17:00:32.198Z,6.30
2023-12-10T17:03:00.607Z,6.20
2023-12-10T17:05:29.091Z,6.20
2023-12-10T17:07:59.464Z,6.10
2023-12-10T17:10:27.779Z,6.10
2023-12-10T17:12:56.163Z,6.00
2023-12-10T17:15:26.048Z,5.80
2023-12-10T17:17:54.506Z,5.80
2023-12-10T17:20:22.907Z,5.70
2023-12-10T17:22:51.288Z,5.90
2023-12-10T17:25:21.185Z,5.70
2023-12-10T17:27:50.719Z,5.80
2023-12-10T17:30:19.161Z,5.70
2023-12-10T17:32:47.665Z,5.80
2023-12-10T17:35:16.820Z,5.90
2023-12-10T17:37:45.185Z,5.90
2023-12-10T17:40:14.735Z,6.10
2023-12-10T17:42:44.514Z,6.10
2023-12-10T17:45:13.144Z,6.10
2023-12-10T17:47:41.579Z,6.10
2023-12-10T17:50:12.109Z,6.10
2023-12-10T17:52:40.664Z,6.10
2023-12-10T17:55:10.872Z,6.10
2023-12-10T17:57:39.192Z,6.00
2023-12-10T18:00:12.530Z,6.00
2023-12-10T18:02:40.980Z,6.00
2023-12-10T18:05:11.505Z,6.00
2023-12-10T18:07:39.864Z,6.10
2023-12-10T18:10:09.095Z,6.10
2023-12-10T18:12:37.452Z,6.10
2023-12-10T18:15:06.637Z,6.00
2023-12-10T18:17:36.554Z,6.00
2023-12-10T18:20:05.747Z,6.00
2023-12-10T18:22:34.100Z,5.90
2023-12-10T18:25:02.549Z,5.80
2023-12-10T18:27:31.712Z,5.80
2023-12-10T18:30:00.452Z,5.80
2023-12-10T18:32:28.765Z,5.70
2023-12-10T18:34:58.589Z,5.70
2023-12-10T18:37:27.167Z,5.70
2023-12-10T18:39:55.603Z,5.50
2023-12-10T18:42:23.965Z,5.50
2023-12-10T18:44:52.300Z,5.50
2023-12-10T18:47:20.657Z,5.40
2023-12-10T18:49:49.140Z,5.40
2023-12-10T18:52:19.013Z,5.40
2023-12-10T18:54:47.363Z,5.40
2023-12-10T18:57:15.645Z,5.50
2023-12-10T18:59:43.993Z,5.50
2023-12-10T19:02:13.128Z,5.60
2023-12-10T19:04:41.486Z,5.60
2023-12-10T19:07:09.980Z,5.90
2023-12-10T19:09:39.845Z,6.40
2023-12-10T19:12:08.385Z,6.50
2023-12-10T19:14:36.748Z,6.50
2023-12-10T19:17:05.345Z,6.50
2023-12-10T19:19:33.858Z,6.50
2023-12-10T19:22:02.614Z,6.50
2023-12-10T19:24:30.985Z,6.60
2023-12-10T19:27:00.788Z,6.80
2023-12-10T19:29:29.957Z,7.10
2023-12-10T19:31:58.870Z,7.30
2023-12-10T19:34:27.264Z,7.90
2023-12-10T19:36:55.704Z,8.10
2023-12-10T19:39:24.553Z,8.20
2023-12-10T19:41:52.949Z,8.20
2023-12-10T19:44:22.788Z,8.30
2023-12-10T19:46:51.099Z,8.20
2023-12-10T19:49:21.893Z,8.10
2023-12-10T19:51:50.826Z,8.10
2023-12-10T19:54:19.133Z,8.00
2023-12-10T19:56:49.384Z,8.10
2023-12-10T19:59:17.783Z,8.30
2023-12-10T20:01:47.527Z,8.20
2023-12-10T20:04:16.029Z,8.10
2023-12-10T20:06:44.538Z,8.10
2023-12-10T20:09:12.902Z,8.00
2023-12-10T20:11:41.217Z,8.00
2023-12-10T20:14:09.664Z,7.80
2023-12-10T20:16:37.943Z,7.80
2023-12-10T20:19:07.708Z,7.80
2023-12-10T20:21:36.867Z,7.80
2023-12-10T20:24:07.391Z,7.60
2023-12-10T20:26:44.561Z,7.60
2023-12-10T20:29:12.941Z,7.60
2023-12-10T20:31:41.825Z,7.50
2023-12-10T20:34:23.577Z,7.50
2023-12-10T20:36:58.314Z,7.70
2023-12-10T20:39:26.845Z,7.70
2023-12-10T20:41:55.230Z,7.70
2023-12-10T20:44:23.532Z,7.70
2023-12-10T20:46:51.861Z,7.60
2023-12-10T20:49:21.621Z,7.60
2023-12-10T20:51:50.014Z,7.60
2023-12-10T20:54:18.416Z,7.60
2023-12-10T20:56:47.088Z,7.70
2023-12-10T20:59:15.882Z,7.70
2023-12-10T21:01:44.277Z,7.70
2023-12-10T21:04:12.652Z,7.70
2023-12-10T21:06:42.735Z,7.80
2023-12-10T21:09:12.989Z,7.90
2023-12-10T21:11:41.799Z,7.90
2023-12-10T21:14:10.184Z,8.00
2023-12-10T21:16:38.504Z,8.00
2023-12-10T21:19:06.899Z,8.10
2023-12-10T21:21:35.294Z,8.20
2023-12-10T21:24:05.389Z,8.20
2023-12-10T21:26:36.567Z,8.60
2023-12-10T21:29:05.244Z,9.20
2023-12-10T21:31:33.713Z,9.30
2023-12-10T21:34:03.138Z,9.40
2023-12-10T21:36:31.763Z,9.50
2023-12-10T21:39:04.235Z,9.50
2023-12-10T21:41:35.916Z,9.50
2023-12-10T21:44:04.966Z,9.50
2023-12-10T21:46:47.871Z,9.40
2023-12-10T21:49:16.338Z,9.40
2023-12-10T21:51:44.750Z,9.60
2023-12-10T21:54:13.060Z,9.50
2023-12-10T21:56:42.790Z,9.60
2023-12-10T21:59:11.118Z,9.60
2023-12-10T22:01:39.506Z,9.70
2023-12-10T22:04:07.869Z,9.70
2023-12-10T22:06:36.392Z,9.70
2023-12-10T22:09:05.325Z,9.60
2023-12-10T22:11:34.046Z,9.70
2023-12-10T22:14:03.789Z,9.70
2023-12-10T22:16:32.186Z,9.70
2023-12-10T22:19:00.757Z,9.70
2023-12-10T22:21:29.144Z,9.70
2023-12-10T22:23:58.852Z,9.80
2023-12-10T22:26:27.224Z,9.80
2023-12-10T22:28:55.615Z,9.80
2023-12-10T22:31:25.545Z,9.70
2023-12-10T22:33:58.870Z,9.80
2023-12-10T22:36:29.596Z,9.80
2023-12-10T22:38:58.046Z,9.80
2023-12-10T22:41:27.204Z,9.80
2023-12-10T22:43:56.021Z,9.70
2023-12-10T22:46:25.685Z,9.80
2023-12-10T22:48:56.290Z,9.70
2023-12-10T22:51:24.676Z,9.60
2023-12-10T22:53:53.411Z,9.70
2023-12-10T22:56:21.826Z,9.70
2023-12-10T22:58:50.456Z,9.70
2023-12-10T23:01:20.732Z,9.70
2023-12-10T23:03:51.443Z,9.70
2023-12-10T23:06:19.849Z,9.70
2023-12-10T23:08:48.193Z,9.70
2023-12-10T23:11:24.257Z,9.70
2023-12-10T23:13:52.529Z,9.60
2023-12-10T23:16:20.890Z,9.60
2023-12-10T23:18:50.624Z,9.50
2023-12-10T23:21:32.231Z,9.60
2023-12-10T23:24:00.558Z,9.50
2023-12-10T23:26:29.153Z,9.40
2023-12-10T23:28:58.128Z,9.40
2023-12-10T23:31:26.801Z,9.40
2023-12-10T23:33:56.618Z,9.40
2023-12-10T23:36:24.058Z,9.40
2023-12-10T23:38:52.446Z,9.40
2023-12-10T23:41:21.634Z,9.40
2023-12-10T23:43:51.167Z,9.30
2023-12-10T23:46:19.572Z,9.20
2023-12-10T23:48:47.983Z,9.20
2023-12-10T23:51:22.017Z,9.10
2023-12-10T23:53:50.409Z,9.10
2023-12-10T23:56:19.050Z,9.10
2023-12-10T23:58:47.386Z,9.20
